Time;durP1;ratioP1;P1;durP2;ratioP2;P2;SDS_P1;SDS_P2;PMS_P1;PMS_P2;Temp;Humidity;BMP_temperature;BMP_pressure;BME280_temperature;BME280_humidity;BME280_pressure;Samples;Min_cycle;Max_cycle;Signal;HPM_P1;HPM_P2
2022/11/11 00:04:26;;;;;;;10.68;5.57;;;;;;;10.53;100.00;102492.44;12777654;23;20016;-90
2022/11/11 00:09:28;;;;;;;12.88;6.15;;;;;;;10.29;100.00;102464.50;12774674;23;20013;-91
2022/11/11 00:14:28;;;;;;;12.75;6.43;;;;;;;10.61;100.00;102528.00;12775353;23;20013;-92
2022/11/11 00:25:06;;;;;;;12.77;6.82;;;;;;;10.61;100.00;102511.47;12803886;23;20009;-90
2022/11/11 00:30:07;;;;;;;15.68;6.80;;;;;;;10.65;100.00;102529.28;12781552;23;20013;-91
2022/11/11 00:40:27;;;;;;;15.35;7.35;;;;;;;10.53;100.00;102514.47;12780980;23;20035;-91
2022/11/11 00:45:27;;;;;;;15.70;7.35;;;;;;;10.61;100.00;102510.63;12727909;23;20024;-92
2022/11/11 00:55:47;;;;;;;17.98;6.93;;;;;;;10.49;100.00;102474.63;12807627;23;20063;-91
2022/11/11 01:00:49;;;;;;;16.02;8.60;;;;;;;10.57;100.00;102492.84;12757210;23;20749;-90
2022/11/11 01:05:50;;;;;;;14.00;7.18;;;;;;;10.60;100.00;102497.91;12709327;23;20017;-92
2022/11/11 01:10:52;;;;;;;16.67;8.13;;;;;;;10.64;100.00;102501.94;12782562;23;20056;-90
2022/11/11 01:15:58;;;;;;;13.55;8.85;;;;;;;10.61;100.00;102499.63;12758382;23;20072;-90
2022/11/11 01:21:02;;;;;;;14.15;9.07;;;;;;;10.61;100.00;102505.97;12756400;23;20029;-90
2022/11/11 01:26:04;;;;;;;18.50;8.68;;;;;;;10.53;100.00;102475.91;12784851;23;20017;-91
2022/11/11 01:31:06;;;;;;;18.23;7.65;;;;;;;10.53;100.00;102480.56;12733840;23;20017;-91
2022/11/11 01:36:14;;;;;;;15.60;8.40;;;;;;;10.57;100.00;102468.91;12765730;23;20021;-91
2022/11/11 01:41:32;;;;;;;15.43;8.38;;;;;;;10.55;100.00;102451.75;12755167;23;20084;-91
2022/11/11 01:46:43;;;;;;;19.75;8.90;;;;;;;10.62;100.00;102469.09;12736493;23;20507;-92
2022/11/11 01:51:46;;;;;;;14.48;8.32;;;;;;;10.63;100.00;102475.47;12806170;23;20070;-90
2022/11/11 01:56:49;;;;;;;19.35;9.38;;;;;;;10.46;100.00;102459.41;12762427;23;20092;-92
2022/11/11 02:01:49;;;;;;;17.90;9.10;;;;;;;10.63;100.00;102481.81;12780591;23;20013;-92
2022/11/11 02:06:52;;;;;;;17.25;8.05;;;;;;;10.66;100.00;102492.38;12780276;23;20028;-92
2022/11/11 02:17:13;;;;;;;19.33;9.18;;;;;;;10.61;100.00;102507.88;12784192;23;20437;-90
2022/11/11 02:22:19;;;;;;;17.77;8.95;;;;;;;10.60;100.00;102509.78;12741434;23;20021;-90
2022/11/11 02:27:19;;;;;;;19.50;9.87;;;;;;;10.60;100.00;102509.78;12754346;23;20016;-91
2022/11/11 02:32:20;;;;;;;21.73;9.27;;;;;;;10.56;100.00;102514.00;12752186;23;20013;-90
2022/11/11 02:37:22;;;;;;;17.30;10.25;;;;;;;10.50;100.00;102514.91;12751624;23;20013;-90
2022/11/11 02:42:23;;;;;;;20.33;10.63;;;;;;;10.56;100.00;102522.28;12752099;23;20491;-91
2022/11/11 02:47:23;;;;;;;23.75;10.95;;;;;;;10.52;100.00;102523.75;12752921;23;20017;-90
2022/11/11 02:52:24;;;;;;;19.48;11.20;;;;;;;10.45;100.00;102522.94;12778144;23;20732;-91
2022/11/11 02:57:25;;;;;;;20.77;11.93;;;;;;;10.34;100.00;102496.06;12776474;23;20023;-90
2022/11/11 03:02:26;;;;;;;18.35;12.13;;;;;;;10.41;100.00;102522.50;12776811;23;20024;-90
2022/11/11 03:07:26;;;;;;;24.38;12.82;;;;;;;10.36;100.00;102525.06;12778648;23;20029;-90
2022/11/11 03:12:27;;;;;;;21.30;13.68;;;;;;;10.36;100.00;102532.50;12802167;23;20040;-90
2022/11/11 03:17:39;;;;;;;32.63;14.35;;;;;;;10.23;100.00;102528.66;12777801;23;20021;-80
2022/11/11 03:22:40;;;;;;;23.15;13.57;;;;;;;10.20;100.00;102525.47;12752631;23;20012;-89
2022/11/11 03:27:41;;;;;;;24.73;14.38;;;;;;;10.31;100.00;102555.13;12804211;23;20013;-90
2022/11/11 03:32:42;;;;;;;21.58;14.25;;;;;;;10.30;100.00;102559.78;12751593;23;20024;-91
2022/11/11 03:43:02;;;;;;;27.13;16.02;;;;;;;10.25;100.00;102567.81;12800104;23;20410;-91
2022/11/11 03:48:03;;;;;;;33.10;16.90;;;;;;;10.19;100.00;102568.66;12776722;23;20017;-90
2022/11/11 03:53:03;;;;;;;32.80;15.68;;;;;;;10.23;100.00;102569.94;12800553;23;20017;-90
2022/11/11 03:58:04;;;;;;;22.95;16.20;;;;;;;10.22;100.00;102559.13;12780250;23;20067;-90
2022/11/11 04:29:53;;;;;;;30.05;19.00;;;;;;;10.04;100.00;102524.81;12772169;23;20028;-91
2022/11/11 04:34:57;;;;;;;34.97;19.23;;;;;;;10.19;100.00;102554.91;12806602;23;20017;-93
2022/11/11 04:45:27;;;;;;;34.63;19.83;;;;;;;10.00;100.00;102531.78;12783455;23;20087;-89
2022/11/11 04:50:32;;;;;;;38.50;19.90;;;;;;;10.14;100.00;102542.81;12806954;23;20231;-92
2022/11/11 05:00:51;;;;;;;30.63;21.35;;;;;;;10.04;100.00;102548.72;12803403;23;20009;-91
2022/11/11 05:11:12;;;;;;;41.10;21.90;;;;;;;10.03;100.00;102549.78;12783528;23;20013;-90
2022/11/11 05:21:34;;;;;;;38.00;21.35;;;;;;;10.05;100.00;102542.19;12783072;23;20024;-90
2022/11/11 05:26:35;;;;;;;36.47;21.88;;;;;;;9.82;100.00;102507.66;12777961;23;20016;-91
2022/11/11 05:31:35;;;;;;;37.40;23.35;;;;;;;10.05;100.00;102545.78;12777933;23;20013;-91
2022/11/11 05:36:36;;;;;;;37.75;23.95;;;;;;;10.04;100.00;102560.56;12778541;23;20024;-91
2022/11/11 05:41:36;;;;;;;36.08;22.20;;;;;;;10.05;100.00;102561.44;12729358;23;20013;-91
2022/11/11 05:46:37;;;;;;;43.72;23.50;;;;;;;9.93;100.00;102558.44;12777020;23;20017;-91
2022/11/11 05:51:37;;;;;;;40.03;23.65;;;;;;;9.97;100.00;102559.72;12752977;23;20009;-91
2022/11/11 05:56:38;;;;;;;40.47;22.48;;;;;;;9.98;100.00;102558.66;12776958;23;20013;-84
2022/11/11 06:01:38;;;;;;;34.25;23.52;;;;;;;9.99;100.00;102556.78;12728470;23;20052;-91
2022/11/11 06:06:39;;;;;;;40.80;22.20;;;;;;;10.20;100.00;102589.59;12790167;23;20019;-92
2022/11/11 06:11:39;;;;;;;35.13;20.52;;;;;;;10.23;100.00;102583.69;12813976;23;20051;-90
2022/11/11 06:16:40;;;;;;;40.30;21.73;;;;;;;10.29;100.00;102607.66;12838038;23;20423;-91
2022/11/11 06:21:59;;;;;;;30.90;20.33;;;;;;;9.90;100.00;102536.84;12837380;23;20350;-90
2022/11/11 06:27:00;;;;;;;39.10;21.38;;;;;;;10.29;100.00;102613.16;12842930;23;20013;-91
2022/11/11 06:32:00;;;;;;;32.17;21.38;;;;;;;10.34;100.00;102614.44;12863854;23;20042;-90
2022/11/11 06:37:00;;;;;;;32.95;21.08;;;;;;;10.32;100.00;102616.56;12814240;23;20021;-90
2022/11/11 06:42:01;;;;;;;34.58;20.88;;;;;;;10.25;100.00;102616.50;12812566;23;20008;-91
2022/11/11 06:47:01;;;;;;;34.85;21.92;;;;;;;10.26;100.00;102630.06;12789975;23;20017;-90
2022/11/11 06:52:02;;;;;;;40.28;21.17;;;;;;;10.10;100.00;102602.94;12836541;23;20071;-91
2022/11/11 06:57:02;;;;;;;38.53;21.05;;;;;;;10.15;100.00;102621.56;12865511;23;20027;-90
2022/11/11 07:02:03;;;;;;;39.67;20.58;;;;;;;10.27;100.00;102636.41;12866848;23;20025;-79
2022/11/11 07:07:03;;;;;;;35.38;20.50;;;;;;;10.27;100.00;102642.78;12847361;23;20017;-89
2022/11/11 07:12:05;;;;;;;30.15;19.27;;;;;;;10.27;100.00;102653.78;12747667;23;20028;-90
2022/11/11 07:17:06;;;;;;;32.67;19.60;;;;;;;10.22;100.00;102648.03;12772295;23;20463;-91
2022/11/11 07:22:06;;;;;;;31.33;20.20;;;;;;;10.22;100.00;102664.56;12772479;23;20013;-91
2022/11/11 07:27:07;;;;;;;38.15;21.27;;;;;;;10.28;100.00;102688.50;12772217;23;20212;-90
2022/11/11 07:32:07;;;;;;;28.80;18.73;;;;;;;10.33;100.00;102684.31;12775918;23;20020;-90
2022/11/11 07:37:08;;;;;;;31.10;19.13;;;;;;;10.27;100.00;102674.94;12727699;23;20013;-90
2022/11/11 07:42:08;;;;;;;33.40;19.42;;;;;;;10.34;100.00;102686.88;12751304;23;20063;-91
2022/11/11 07:47:09;;;;;;;30.08;18.27;;;;;;;10.37;100.00;102680.09;12776499;23;20017;-90
2022/11/11 07:52:09;;;;;;;28.70;18.73;;;;;;;10.46;100.00;102695.38;12727856;23;20032;-89
2022/11/11 07:57:10;;;;;;;31.33;18.38;;;;;;;10.41;100.00;102671.19;12775753;23;20024;-92
2022/11/11 08:02:11;;;;;;;29.75;18.85;;;;;;;10.43;100.00;102695.78;12800726;23;20013;-92
2022/11/11 08:07:11;;;;;;;31.88;19.08;;;;;;;10.45;100.00;102699.16;12774994;23;20021;-93
2022/11/11 08:17:35;;;;;;;27.52;17.23;;;;;;;10.47;100.00;102725.44;12759385;23;20021;-93
2022/11/11 08:22:37;;;;;;;33.80;16.52;;;;;;;10.14;100.00;102681.25;12776249;23;20081;-93
2022/11/11 08:27:37;;;;;;;25.17;16.30;;;;;;;10.56;100.00;102739.00;12775727;23;20044;-92
2022/11/11 08:32:38;;;;;;;28.67;17.17;;;;;;;10.59;100.00;102758.72;12750532;23;20017;-92
2022/11/11 08:37:38;;;;;;;31.52;17.02;;;;;;;10.32;100.00;102702.75;12774548;23;20013;-91
2022/11/11 08:42:39;;;;;;;30.05;16.25;;;;;;;10.68;100.00;102751.94;12800258;23;20013;-91
2022/11/11 08:47:43;;;;;;;27.45;15.82;;;;;;;10.70;100.00;102740.72;12775775;23;20021;-90
2022/11/11 08:52:47;;;;;;;27.05;16.67;;;;;;;10.62;100.00;102725.25;12749865;23;20013;-93
2022/11/11 08:57:48;;;;;;;28.60;17.10;;;;;;;10.66;100.00;102728.44;12774083;23;20068;-93
2022/11/11 09:02:48;;;;;;;29.42;15.93;;;;;;;10.73;100.00;102751.34;12726859;23;20013;-93
2022/11/11 09:07:49;;;;;;;27.85;16.23;;;;;;;10.77;100.00;102757.25;12799329;23;20025;-93
2022/11/11 09:12:55;;;;;;;26.45;15.52;;;;;;;10.72;100.00;102759.81;12801103;23;20021;-93
2022/11/11 09:17:55;;;;;;;30.77;15.55;;;;;;;10.81;100.00;102764.06;12751296;23;20077;-95
2022/11/11 09:22:56;;;;;;;27.70;15.82;;;;;;;10.85;100.00;102766.19;12768345;23;20021;-92
2022/11/11 09:27:57;;;;;;;27.45;14.50;;;;;;;10.92;100.00;102777.22;12745936;23;20017;-95
2022/11/11 09:33:01;;;;;;;20.75;14.10;;;;;;;10.85;100.00;102754.31;12750101;23;20013;-94
2022/11/11 09:38:02;;;;;;;27.13;13.95;;;;;;;10.99;100.00;102766.19;12774683;23;20067;-94
2022/11/11 09:43:10;;;;;;;23.25;14.45;;;;;;;11.15;100.00;102798.03;12775027;23;20148;-94
2022/11/11 09:48:29;;;;;;;29.35;13.90;;;;;;;11.18;100.00;102786.56;12774183;23;20017;-92
2022/11/11 09:53:36;;;;;;;25.33;14.13;;;;;;;11.20;100.00;102798.22;12799892;23;20025;-88
2022/11/11 09:58:47;;;;;;;21.83;13.32;;;;;;;11.20;100.00;102812.00;12774749;23;20009;-89
2022/11/11 10:04:11;;;;;;;23.60;12.40;;;;;;;10.98;100.00;102795.69;12749579;23;20025;-92
2022/11/11 10:09:23;;;;;;;25.65;12.90;;;;;;;11.06;100.00;102811.16;12799410;23;20347;-92
2022/11/11 10:14:25;;;;;;;22.35;13.38;;;;;;;11.09;100.00;102806.06;12810447;23;20021;-90
2022/11/11 10:19:32;;;;;;;20.42;12.70;;;;;;;11.27;100.00;102818.38;12811179;23;20036;-92
2022/11/11 10:24:36;;;;;;;22.00;13.63;;;;;;;10.92;100.00;102755.19;12811322;23;20091;-88
2022/11/11 10:29:43;;;;;;;17.35;12.52;;;;;;;11.23;100.00;102801.41;12811030;23;20009;-93
2022/11/11 10:34:43;;;;;;;23.90;12.77;;;;;;;11.34;100.00;102815.63;12813482;23;20013;-93
2022/11/11 10:40:05;;;;;;;22.77;11.63;;;;;;;11.38;100.00;102803.94;12863444;23;20017;-92
2022/11/11 10:45:23;;;;;;;19.13;11.65;;;;;;;11.49;100.00;102808.84;12811601;23;20020;-93
2022/11/11 10:50:30;;;;;;;19.33;10.60;;;;;;;11.55;100.00;102803.53;12835015;23;20019;-94
2022/11/11 10:55:34;;;;;;;17.88;10.98;;;;;;;11.56;100.00;102799.72;12810270;23;20036;-93
2022/11/11 11:00:35;;;;;;;17.20;10.65;;;;;;;11.62;100.00;102798.88;12781908;23;20013;-91
2022/11/11 11:06:03;;;;;;;17.60;10.65;;;;;;;11.67;100.00;102793.53;12783856;23;20013;-94
2022/11/11 11:11:21;;;;;;;22.95;12.00;;;;;;;11.78;100.00;102798.41;12814752;23;20021;-89
2022/11/11 11:16:24;;;;;;;20.27;10.30;;;;;;;11.75;100.00;102787.78;12807869;23;20013;-88
2022/11/11 11:21:24;;;;;;;16.05;10.70;;;;;;;11.87;100.00;102802.63;12808769;23;20017;-87
2022/11/11 11:26:29;;;;;;;19.27;10.68;;;;;;;11.95;100.00;102792.44;12834880;23;20013;-94
2022/11/11 11:31:37;;;;;;;18.33;11.98;;;;;;;11.99;100.00;102780.75;12811745;23;20016;-86
2022/11/11 11:36:37;;;;;;;18.05;10.48;;;;;;;12.00;100.00;102776.09;12786777;23;20454;-89
2022/11/11 11:41:42;;;;;;;14.15;10.50;;;;;;;12.19;100.00;102780.66;12861440;23;20016;-87
2022/11/11 11:46:43;;;;;;;14.13;9.45;;;;;;;12.08;100.00;102754.59;12837091;23;20012;-91
2022/11/11 11:51:58;;;;;;;16.67;10.50;;;;;;;12.05;100.00;102782.66;12811364;23;20047;-90
2022/11/11 11:57:01;;;;;;;14.02;9.65;;;;;;;12.04;100.00;102785.63;12813049;23;20009;-89
2022/11/11 12:02:27;;;;;;;21.60;12.77;;;;;;;12.09;100.00;102796.84;12818803;23;20012;-96
2022/11/11 12:07:31;;;;;;;19.57;12.90;;;;;;;11.83;100.00;102801.34;12791781;23;20032;-91
2022/11/11 12:12:47;;;;;;;20.30;13.13;;;;;;;11.53;100.00;102798.22;12802927;23;20017;-94
2022/11/11 12:18:09;;;;;;;24.27;15.07;;;;;;;11.36;100.00;102800.56;12776931;23;20045;-91
2022/11/11 12:23:30;;;;;;;23.52;14.93;;;;;;;11.42;100.00;102810.75;12778959;23;20028;-94
2022/11/11 12:28:39;;;;;;;20.63;13.27;;;;;;;11.59;100.00;102821.34;12756248;23;20085;-96
2022/11/11 12:33:41;;;;;;;18.10;13.00;;;;;;;11.60;100.00;102817.53;12785630;23;20036;-96
2022/11/11 12:38:59;;;;;;;24.00;14.63;;;;;;;11.42;100.00;102824.53;12820590;23;20027;-94
2022/11/11 12:44:09;;;;;;;25.17;14.48;;;;;;;11.55;100.00;102811.81;12728008;23;20048;-89
2022/11/11 12:49:40;;;;;;;18.83;12.95;;;;;;;11.67;100.00;102835.75;12750705;23;20040;-86
2022/11/11 12:54:59;;;;;;;19.25;11.77;;;;;;;11.74;100.00;102827.50;12776221;23;20305;-92
2022/11/11 13:00:07;;;;;;;23.77;12.40;;;;;;;11.21;100.00;102744.78;12791850;23;20021;-94
2022/11/11 13:05:29;;;;;;;18.58;12.23;;;;;;;11.75;100.00;102822.81;12753671;23;20016;-89
2022/11/11 13:10:56;;;;;;;21.60;13.10;;;;;;;11.74;100.00;102830.25;12802059;23;20021;-90
2022/11/11 13:15:57;;;;;;;18.33;11.68;;;;;;;11.81;100.00;102828.31;12793463;23;20068;-90
2022/11/11 13:20:59;;;;;;;17.45;11.82;;;;;;;11.84;100.00;102827.88;12749023;23;20029;-90
2022/11/11 13:26:03;;;;;;;16.33;10.95;;;;;;;11.95;100.00;102836.59;12749155;23;20458;-90
2022/11/11 13:31:31;;;;;;;15.75;10.55;;;;;;;11.87;100.00;102827.47;12749607;23;20017;-91
2022/11/11 13:36:45;;;;;;;15.75;10.68;;;;;;;11.83;100.00;102842.75;12752782;23;20009;-90
2022/11/11 13:41:48;;;;;;;18.70;11.05;;;;;;;11.77;100.00;102851.88;12753078;23;20021;-90
2022/11/11 13:46:48;;;;;;;14.20;10.40;;;;;;;11.67;100.00;102834.91;12751084;23;20032;-93
2022/11/11 13:51:59;;;;;;;17.05;9.95;;;;;;;11.79;100.00;102852.53;12726236;23;20009;-90
2022/11/11 13:57:02;;;;;;;16.70;10.77;;;;;;;11.70;100.00;102837.25;12752775;23;20061;-92
2022/11/11 14:02:17;;;;;;;17.02;9.57;;;;;;;11.71;100.00;102853.59;12758933;23;20028;-92
2022/11/11 14:07:42;;;;;;;14.05;9.25;;;;;;;11.73;100.00;102866.34;12801642;23;20017;-90
2022/11/11 14:12:52;;;;;;;15.15;9.23;;;;;;;11.73;100.00;102853.38;12801145;23;20035;-89
2022/11/11 14:17:53;;;;;;;16.80;10.10;;;;;;;11.56;100.00;102876.97;12778378;23;20076;-92
2022/11/11 14:22:53;;;;;;;13.20;9.65;;;;;;;11.46;100.00;102852.53;12775240;23;20013;-93
2022/11/11 14:27:54;;;;;;;21.17;8.93;;;;;;;11.50;100.00;102867.59;12774796;23;20013;-94
2022/11/11 14:32:59;;;;;;;16.80;9.73;;;;;;;11.56;100.00;102874.19;12750590;23;20009;-94
2022/11/11 14:38:45;;;;;;;12.20;8.55;;;;;;;11.45;100.00;102882.03;12775262;23;20095;-93
2022/11/11 14:43:45;;;;;;;13.13;8.90;;;;;;;11.34;100.00;102879.06;12798270;23;20021;-92
2022/11/11 14:48:48;;;;;;;13.30;9.15;;;;;;;11.30;100.00;102875.84;12749649;23;20443;-95
2022/11/11 14:53:52;;;;;;;17.25;9.93;;;;;;;11.29;100.00;102894.31;12799543;23;20027;-94
2022/11/11 14:59:04;;;;;;;19.15;10.35;;;;;;;11.21;100.00;102860.59;12751652;23;20029;-93
2022/11/11 15:04:04;;;;;;;15.57;9.88;;;;;;;11.21;100.00;102879.88;12755341;23;20014;-92
2022/11/11 15:09:26;;;;;;;16.15;10.15;;;;;;;11.24;100.00;102890.47;12725948;23;20068;-93
2022/11/11 15:14:38;;;;;;;16.98;10.18;;;;;;;11.22;100.00;102893.44;12748828;23;20159;-94
2022/11/11 15:20:00;;;;;;;17.75;10.95;;;;;;;11.21;100.00;102896.44;12750600;23;20029;-91
2022/11/11 15:25:25;;;;;;;16.00;10.23;;;;;;;11.19;100.00;102882.00;12727444;23;20059;-90
2022/11/11 15:30:52;;;;;;;18.95;11.25;;;;;;;11.19;100.00;102891.13;12776588;23;20283;-91
2022/11/11 15:36:18;;;;;;;19.70;12.35;;;;;;;11.15;100.00;102891.75;12773756;23;20028;-89
2022/11/11 15:41:23;;;;;;;15.23;10.67;;;;;;;11.06;100.00;102889.19;12756122;23;20092;-94
2022/11/11 15:46:25;;;;;;;22.55;11.40;;;;;;;11.01;100.00;102888.09;12773015;23;20063;-91
2022/11/11 15:51:32;;;;;;;17.52;11.65;;;;;;;10.95;100.00;102864.13;12805077;23;20013;-92
2022/11/11 15:56:33;;;;;;;22.27;11.55;;;;;;;11.01;100.00;102893.63;12752818;23;20025;-91
2022/11/11 16:01:33;;;;;;;19.90;11.52;;;;;;;11.08;100.00;102903.63;12775869;23;20023;-92
2022/11/11 16:06:34;;;;;;;21.73;12.38;;;;;;;11.07;100.00;102912.94;12776262;23;20028;-88
2022/11/11 16:11:37;;;;;;;19.33;11.23;;;;;;;11.06;100.00;102914.00;12750556;23;20309;-92
2022/11/11 16:16:38;;;;;;;20.50;12.75;;;;;;;10.96;100.00;102913.53;12753104;23;20057;-94
2022/11/11 16:21:39;;;;;;;21.40;13.38;;;;;;;11.02;100.00;102923.75;12777489;23;20029;-89
2022/11/11 16:26:40;;;;;;;22.10;13.48;;;;;;;10.96;100.00;102921.81;12780174;23;20057;-91
2022/11/11 16:31:41;;;;;;;21.70;12.25;;;;;;;11.01;100.00;102938.56;12750454;23;20017;-89
2022/11/11 16:37:01;;;;;;;20.33;13.32;;;;;;;11.00;100.00;102945.16;12775613;23;20080;-88
2022/11/11 16:42:28;;;;;;;23.13;13.02;;;;;;;10.98;100.00;102941.75;12803343;23;20036;-89
2022/11/11 16:47:31;;;;;;;23.70;13.43;;;;;;;10.96;100.00;102938.34;12793045;23;20477;-89
2022/11/11 16:52:40;;;;;;;19.15;12.68;;;;;;;10.96;100.00;102943.84;12801339;23;20025;-90
2022/11/11 16:57:44;;;;;;;21.50;12.63;;;;;;;10.90;100.00;102933.66;12775563;23;20040;-90
2022/11/11 17:02:44;;;;;;;20.50;12.68;;;;;;;10.92;100.00;102948.09;12752013;23;20009;-92
2022/11/11 17:07:45;;;;;;;19.50;12.45;;;;;;;10.68;100.00;102917.22;12754581;23;20055;-93
2022/11/11 17:12:46;;;;;;;25.65;14.60;;;;;;;10.83;100.00;102944.66;12774319;23;20020;-90
2022/11/11 17:17:47;;;;;;;23.38;13.02;;;;;;;10.80;100.00;102952.47;12774085;23;20029;-90
2022/11/11 17:22:48;;;;;;;18.38;12.13;;;;;;;10.76;100.00;102967.72;12801149;23;20009;-89
2022/11/11 17:27:49;;;;;;;19.23;13.38;;;;;;;10.58;100.00;102941.53;12775527;23;20394;-90
2022/11/11 17:32:49;;;;;;;19.83;13.18;;;;;;;10.70;100.00;102970.22;12748854;23;20016;-91
2022/11/11 17:37:50;;;;;;;21.77;13.77;;;;;;;10.70;100.00;102972.97;12724245;23;20028;-87
2022/11/11 17:42:50;;;;;;;21.05;13.18;;;;;;;10.72;100.00;102974.69;12799097;23;20309;-90
2022/11/11 17:47:51;;;;;;;23.45;13.20;;;;;;;10.72;100.00;102980.19;12774155;23;20028;-90
2022/11/11 17:52:54;;;;;;;21.42;13.43;;;;;;;10.70;100.00;102972.97;12804837;23;20009;-83
2022/11/11 17:57:56;;;;;;;18.65;11.52;;;;;;;10.65;100.00;102966.41;12780243;23;20088;-93
2022/11/11 18:02:56;;;;;;;20.30;11.68;;;;;;;10.55;100.00;102949.41;12731248;23;20009;-89
2022/11/11 18:07:57;;;;;;;20.98;11.80;;;;;;;10.55;100.00;102965.91;12777651;23;20017;-91
2022/11/11 18:12:57;;;;;;;19.83;11.85;;;;;;;10.48;100.00;102960.38;12777130;23;20017;-81
2022/11/11 18:17:58;;;;;;;17.38;11.10;;;;;;;10.42;100.00;102969.44;12753870;23;20020;-91
2022/11/11 18:22:58;;;;;;;18.42;11.35;;;;;;;10.25;100.00;102955.09;12752215;23;20013;-91
2022/11/11 18:27:58;;;;;;;16.05;10.68;;;;;;;10.27;100.00;102962.13;12777670;23;20072;-90
2022/11/11 18:32:59;;;;;;;15.85;9.93;;;;;;;10.21;100.00;102962.91;12778967;23;20482;-90
2022/11/11 18:37:59;;;;;;;17.20;10.35;;;;;;;10.12;100.00;102966.84;12802495;23;20365;-92
2022/11/11 18:43:00;;;;;;;18.65;11.30;;;;;;;9.87;100.00;102953.53;12802624;23;20016;-91
2022/11/11 18:48:00;;;;;;;21.70;11.25;;;;;;;9.77;100.00;102966.78;12753581;23;20086;-90
2022/11/11 18:53:01;;;;;;;24.67;11.95;;;;;;;9.55;100.00;102962.31;12802247;23;20466;-90
2022/11/11 18:58:01;;;;;;;20.48;12.52;;;;;;;9.39;100.00;102968.97;12779075;23;21051;-91
2022/11/11 19:03:02;;;;;;;19.48;11.52;;;;;;;9.03;100.00;102925.84;12815084;23;20386;-89
2022/11/11 19:08:03;;;;;;;21.60;11.45;;;;;;;8.83;100.00;102931.13;12785506;23;20013;-90
2022/11/11 19:13:04;;;;;;;22.05;12.43;;;;;;;8.65;100.00;102943.34;12776225;23;20039;-88
2022/11/11 19:18:04;;;;;;;21.02;11.52;;;;;;;8.38;100.00;102944.84;12774038;23;20021;-90
2022/11/11 19:23:05;;;;;;;20.98;13.07;;;;;;;8.24;100.00;102962.97;12751603;23;20009;-91
2022/11/11 19:28:07;;;;;;;25.77;14.80;;;;;;;8.04;100.00;102961.81;12808380;23;20009;-92
2022/11/11 19:33:07;;;;;;;25.55;13.45;;;;;;;7.85;100.00;102966.81;12812380;23;20091;-94
2022/11/11 19:38:08;;;;;;;26.73;13.60;;;;;;;7.71;100.00;102975.84;12781144;23;20095;-90
2022/11/11 19:43:08;;;;;;;31.15;16.02;;;;;;;7.62;100.00;102982.41;12779287;23;20512;-92
2022/11/11 19:48:09;;;;;;;27.08;13.70;;;;;;;7.44;100.00;102974.47;12782749;23;20068;-89
2022/11/11 19:53:11;;;;;;;25.92;13.73;;;;;;;7.25;100.00;102975.81;12783273;23;20182;-87
2022/11/11 19:58:13;;;;;;;26.40;14.25;;;;;;;7.16;100.00;102985.13;12758185;23;20023;-91
2022/11/11 20:03:13;;;;;;;26.58;14.20;;;;;;;7.04;100.00;102996.47;12811516;23;20447;-89
2022/11/11 20:08:14;;;;;;;26.98;16.58;;;;;;;6.99;100.00;103004.38;12805762;23;20035;-90
2022/11/11 20:13:14;;;;;;;30.42;17.35;;;;;;;6.95;100.00;103003.03;12783101;23;20024;-91
2022/11/11 20:18:15;;;;;;;30.15;16.13;;;;;;;6.87;100.00;103006.66;12783250;23;20021;-91
2022/11/11 20:23:15;;;;;;;28.13;15.60;;;;;;;6.80;100.00;102996.56;12759167;23;20555;-91
2022/11/11 20:28:16;;;;;;;28.77;14.73;;;;;;;6.75;100.00;103004.47;12782501;23;20009;-91
2022/11/11 20:33:16;;;;;;;30.95;15.45;;;;;;;6.62;100.00;103010.50;12808225;23;20025;-89
2022/11/11 20:38:17;;;;;;;26.67;15.32;;;;;;;6.59;100.00;103019.06;12777615;23;20375;-89
2022/11/11 20:43:17;;;;;;;25.73;12.13;;;;;;;6.43;100.00;102998.09;12775566;23;20012;-90
2022/11/11 20:48:17;;;;;;;22.05;13.70;;;;;;;6.42;100.00;103018.25;12801406;23;20048;-90
2022/11/11 20:53:18;;;;;;;26.98;14.18;;;;;;;6.20;100.00;103000.66;12775217;23;20040;-80
2022/11/11 20:58:18;;;;;;;27.38;13.95;;;;;;;6.30;100.00;103031.44;12773792;23;20028;-93
2022/11/11 21:03:19;;;;;;;23.95;13.50;;;;;;;6.10;100.00;103003.59;12749761;23;20009;-93
2022/11/11 21:08:24;;;;;;;25.67;13.95;;;;;;;6.19;100.00;103027.16;12802752;23;20013;-92
2022/11/11 21:13:25;;;;;;;21.42;12.13;;;;;;;6.16;100.00;103030.25;12836577;23;20040;-91
2022/11/11 21:18:26;;;;;;;24.58;12.75;;;;;;;6.10;100.00;103036.41;12787530;23;20020;-91
2022/11/11 21:23:26;;;;;;;25.25;12.60;;;;;;;6.03;100.00;103038.13;12864212;23;20017;-91
2022/11/11 21:28:27;;;;;;;18.85;12.70;;;;;;;6.00;100.00;103046.69;12836986;23;20021;-91
2022/11/11 21:33:27;;;;;;;25.20;12.98;;;;;;;5.95;100.00;103049.03;12863809;23;20023;-91
2022/11/11 21:38:28;;;;;;;24.55;12.88;;;;;;;5.93;100.00;103051.06;12792556;23;20020;-91
2022/11/11 21:43:28;;;;;;;24.23;13.65;;;;;;;5.83;100.00;103053.97;12836370;23;20020;-91
2022/11/11 21:48:29;;;;;;;25.95;13.25;;;;;;;5.64;100.00;103053.28;12810123;23;20017;-91
2022/11/11 21:53:30;;;;;;;23.55;12.35;;;;;;;5.60;100.00;103072.88;12818205;23;20021;-88
2022/11/11 21:58:31;;;;;;;24.67;14.00;;;;;;;5.32;100.00;103036.81;12843845;23;20013;-90
2022/11/11 22:03:33;;;;;;;26.02;13.50;;;;;;;5.38;100.00;103056.09;12794872;23;20021;-90
2022/11/11 22:08:35;;;;;;;26.90;13.18;;;;;;;5.46;100.00;103075.25;12795733;23;20331;-90
2022/11/11 22:13:36;;;;;;;33.50;18.05;;;;;;;5.40;100.00;103056.78;12805981;23;20107;-91
2022/11/11 22:18:37;;;;;;;37.65;22.13;;;;;;;5.51;100.00;103079.38;12779254;23;20021;-90
2022/11/11 22:23:38;;;;;;;39.95;21.17;;;;;;;5.52;100.00;103075.59;12801478;23;20008;-90
2022/11/11 22:28:38;;;;;;;38.97;21.58;;;;;;;5.57;100.00;103078.69;12801958;23;20053;-92
2022/11/11 22:33:40;;;;;;;28.52;16.80;;;;;;;5.57;100.00;103089.63;12782240;23;20130;-92
2022/11/11 22:38:41;;;;;;;26.30;15.82;;;;;;;5.59;100.00;103085.69;12786435;23;20021;-93
2022/11/11 22:43:43;;;;;;;28.77;15.85;;;;;;;5.54;100.00;103084.47;12807402;23;20056;-92
2022/11/11 22:49:04;;;;;;;26.63;16.05;;;;;;;5.44;100.00;103080.03;12804381;23;20020;-92
2022/11/11 22:54:05;;;;;;;30.45;16.15;;;;;;;5.24;100.00;103076.69;12805411;23;20013;-91
2022/11/11 22:59:05;;;;;;;25.65;14.60;;;;;;;5.27;100.00;103078.25;12801606;23;20032;-90
2022/11/11 23:04:08;;;;;;;24.15;14.57;;;;;;;5.18;100.00;103087.44;12816034;23;20017;-91
2022/11/11 23:09:10;;;;;;;27.40;15.32;;;;;;;5.05;100.00;103093.34;12799311;23;20017;-89
2022/11/11 23:14:13;;;;;;;24.63;14.63;;;;;;;4.86;100.00;103075.34;12754574;23;20096;-91
2022/11/11 23:19:13;;;;;;;32.72;18.02;;;;;;;4.95;100.00;103103.53;12756620;23;20527;-88
2022/11/11 23:24:14;;;;;;;24.83;15.23;;;;;;;4.86;100.00;103078.09;12763984;23;20017;-90
2022/11/11 23:29:14;;;;;;;28.25;17.15;;;;;;;4.74;100.00;103071.19;12777391;23;20017;-87
2022/11/11 23:34:14;;;;;;;28.85;15.32;;;;;;;4.81;100.00;103088.63;12755309;23;21020;-91
2022/11/11 23:39:15;;;;;;;26.08;14.73;;;;;;;4.72;100.00;103079.53;12804543;23;20371;-91
2022/11/11 23:44:15;;;;;;;26.55;14.60;;;;;;;4.69;100.00;103098.09;12781672;23;20020;-92
2022/11/11 23:49:16;;;;;;;25.58;14.55;;;;;;;4.61;100.00;103105.22;12809304;23;20023;-92
2022/11/11 23:54:16;;;;;;;28.08;14.82;;;;;;;4.40;100.00;103091.94;12734724;23;20457;-91
2022/11/11 23:59:17;;;;;;;25.73;15.32;;;;;;;4.42;100.00;103098.09;12751125;23;20024;-91
